createdAt,value
2022-11-24T00:02:04.302Z,5.97
2022-11-24T00:05:07.968Z,6.55
2022-11-24T00:08:10.876Z,4.30
2022-11-24T00:11:19.836Z,5.20
2022-11-24T00:14:22.646Z,6.40
2022-11-24T00:17:25.417Z,6.10
2022-11-24T00:20:28.075Z,5.15
2022-11-24T00:23:31.016Z,5.38
2022-11-24T00:26:37.421Z,7.00
2022-11-24T00:29:40.135Z,6.03
2022-11-24T00:32:42.778Z,5.20
2022-11-24T00:35:45.483Z,6.03
2022-11-24T00:38:52.703Z,5.00
2022-11-24T00:41:55.848Z,6.20
2022-11-24T00:44:58.519Z,5.13
2022-11-24T00:48:01.165Z,5.13
2022-11-24T00:51:06.763Z,6.05
2022-11-24T00:54:09.521Z,4.32
2022-11-24T00:57:12.124Z,5.45
2022-11-24T01:00:33.501Z,4.93
2022-11-24T01:03:37.085Z,5.53
2022-11-24T01:06:39.884Z,5.05
2022-11-24T01:09:45.673Z,4.88
2022-11-24T01:12:48.305Z,5.25
2022-11-24T01:15:51.082Z,5.67
2022-11-24T01:18:54.420Z,5.27
2022-11-24T01:21:57.247Z,5.15
2022-11-24T01:24:59.903Z,5.30
2022-11-24T01:28:02.633Z,5.35
2022-11-24T01:31:07.122Z,4.50
2022-11-24T01:34:09.789Z,5.57
2022-11-24T01:37:12.574Z,6.78
2022-11-24T01:40:15.990Z,5.22
2022-11-24T01:43:21.825Z,5.72
2022-11-24T01:46:34.233Z,6.30
2022-11-24T01:49:42.063Z,5.17
2022-11-24T01:52:49.767Z,4.78
2022-11-24T01:55:53.487Z,4.75
2022-11-24T01:59:00.236Z,6.80
2022-11-24T02:02:02.908Z,5.07
2022-11-24T02:05:13.612Z,4.57
2022-11-24T02:08:24.245Z,5.47
2022-11-24T02:11:30.629Z,5.00
2022-11-24T02:14:35.704Z,5.32
2022-11-24T02:17:38.699Z,5.60
2022-11-24T02:20:41.360Z,4.30
2022-11-24T02:24:08.940Z,4.82
2022-11-24T02:27:12.007Z,5.63
2022-11-24T02:30:15.036Z,5.10
2022-11-24T02:33:18.195Z,4.50
2022-11-24T02:36:20.852Z,4.30
2022-11-24T02:39:23.633Z,5.18
2022-11-24T02:42:30.960Z,4.90
2022-11-24T02:45:33.696Z,4.60
2022-11-24T02:48:37.380Z,5.30
2022-11-24T02:51:40.043Z,4.83
2022-11-24T02:54:42.817Z,4.72
2022-11-24T02:57:45.503Z,4.47
2022-11-24T03:00:48.813Z,3.78
2022-11-24T03:03:51.384Z,4.37
2022-11-24T03:06:54.062Z,5.40
2022-11-24T03:09:56.724Z,3.67
2022-11-24T03:12:59.445Z,4.82
2022-11-24T03:16:02.183Z,4.40
2022-11-24T03:19:05.240Z,5.43
2022-11-24T03:22:07.923Z,5.73
2022-11-24T03:25:10.675Z,4.78
2022-11-24T03:28:13.383Z,4.55
2022-11-24T03:31:16.196Z,6.28
2022-11-24T03:34:19.319Z,3.87
2022-11-24T03:37:22.751Z,4.20
2022-11-24T03:40:25.493Z,5.18
2022-11-24T03:43:28.252Z,4.93
2022-11-24T03:46:30.919Z,5.00
2022-11-24T03:49:33.962Z,4.67
2022-11-24T03:52:36.865Z,4.40
2022-11-24T03:55:39.566Z,4.82
2022-11-24T03:58:42.515Z,3.58
2022-11-24T04:01:46.037Z,4.25
2022-11-24T04:04:50.874Z,4.97
2022-11-24T04:07:57.685Z,4.17
2022-11-24T04:11:01.131Z,3.72
2022-11-24T04:14:07.845Z,4.43
2022-11-24T04:17:13.245Z,4.90
2022-11-24T04:20:16.911Z,4.67
2022-11-24T04:23:19.865Z,4.17
2022-11-24T04:26:22.589Z,4.10
2022-11-24T04:29:25.257Z,4.55
2022-11-24T04:32:28.450Z,4.68
2022-11-24T04:35:31.193Z,5.13
2022-11-24T04:39:19.564Z,4.03
2022-11-24T04:41:56.568Z,5.28
2022-11-24T04:44:59.449Z,5.50
2022-11-24T04:48:02.069Z,5.47
2022-11-24T04:51:06.233Z,4.23
2022-11-24T04:54:12.405Z,3.83
2022-11-24T04:57:26.340Z,4.60
2022-11-24T05:00:29.287Z,4.03
2022-11-24T05:03:31.994Z,4.65
2022-11-24T05:06:34.638Z,4.37
2022-11-24T05:09:59.575Z,4.13
2022-11-24T05:13:06.579Z,4.70
2022-11-24T05:16:09.411Z,5.50
2022-11-24T05:19:15.515Z,3.83
2022-11-24T05:22:18.184Z,4.53
2022-11-24T05:25:20.997Z,4.73
2022-11-24T05:28:23.692Z,4.68
2022-11-24T05:31:26.402Z,4.68
2022-11-24T05:34:33.251Z,4.18
2022-11-24T05:37:36.662Z,4.27
2022-11-24T05:40:39.501Z,4.07
2022-11-24T05:43:42.298Z,4.88
2022-11-24T05:46:45.002Z,6.05
2022-11-24T05:49:48.080Z,5.15
2022-11-24T05:52:50.768Z,4.50
2022-11-24T05:55:53.399Z,5.53
2022-11-24T05:58:56.494Z,4.82
2022-11-24T06:01:59.230Z,4.07
2022-11-24T06:05:01.943Z,4.97
2022-11-24T06:08:04.840Z,5.43
2022-11-24T06:11:19.235Z,5.10
2022-11-24T06:14:22.135Z,5.07
2022-11-24T06:17:24.886Z,4.13
2022-11-24T06:20:32.460Z,4.88
2022-11-24T06:23:35.512Z,4.27
2022-11-24T06:26:38.095Z,4.83
2022-11-24T06:29:40.768Z,4.63
2022-11-24T06:32:49.321Z,4.13
2022-11-24T06:35:53.625Z,5.10
2022-11-24T06:38:56.328Z,5.10
2022-11-24T06:41:59.178Z,4.60
2022-11-24T06:45:06.013Z,4.45
2022-11-24T06:48:11.483Z,5.13
2022-11-24T06:51:14.340Z,3.92
2022-11-24T06:54:18.425Z,4.83
2022-11-24T06:57:21.108Z,4.23
2022-11-24T07:00:24.074Z,4.97
2022-11-24T07:03:27.043Z,4.38
2022-11-24T07:06:29.825Z,4.60
2022-11-24T07:09:32.623Z,5.50
2022-11-24T07:12:35.405Z,5.10
2022-11-24T07:15:38.084Z,4.63
2022-11-24T07:18:41.799Z,5.07
2022-11-24T07:21:44.391Z,5.43
2022-11-24T07:24:47.069Z,6.30
2022-11-24T07:27:49.768Z,5.53
2022-11-24T07:30:52.589Z,5.05
2022-11-24T07:33:55.751Z,5.13
2022-11-24T07:37:06.313Z,4.35
2022-11-24T07:40:10.950Z,4.67
2022-11-24T07:43:18.691Z,5.80
2022-11-24T07:46:24.690Z,5.82
2022-11-24T07:49:27.887Z,5.57
2022-11-24T07:52:30.610Z,4.68
2022-11-24T07:55:33.376Z,3.40
2022-11-24T07:58:38.160Z,5.83
2022-11-24T08:01:41.360Z,6.05
2022-11-24T08:04:44.055Z,4.53
2022-11-24T08:07:46.872Z,6.13
2022-11-24T08:10:50.038Z,5.33
2022-11-24T08:13:52.991Z,4.27
2022-11-24T08:16:55.856Z,5.13
2022-11-24T08:19:58.719Z,5.95
2022-11-24T08:23:01.582Z,5.28
2022-11-24T08:26:10.736Z,6.57
2022-11-24T08:29:13.494Z,7.40
2022-11-24T08:32:21.906Z,6.18
2022-11-24T08:40:52.475Z,5.60
2022-11-24T08:43:55.592Z,6.80
2022-11-24T08:47:07.337Z,8.23
2022-11-24T08:50:10.286Z,5.90
2022-11-24T08:53:13.119Z,6.53
2022-11-24T08:56:16.251Z,6.32
2022-11-24T08:59:19.465Z,6.20
2022-11-24T09:02:22.176Z,6.27
2022-11-24T09:05:50.795Z,6.30
2022-11-24T09:08:48.934Z,6.07
2022-11-24T09:11:52.023Z,7.65
2022-11-24T09:14:55.055Z,7.93
2022-11-24T09:17:57.934Z,8.43
2022-11-24T09:21:14.817Z,5.10
2022-11-24T09:24:17.613Z,7.95
2022-11-24T09:27:20.218Z,5.90
2022-11-24T09:30:26.881Z,7.00
2022-11-24T09:33:30.476Z,8.63
2022-11-24T09:36:33.787Z,7.80
2022-11-24T09:39:36.753Z,9.48
2022-11-24T09:43:03.432Z,5.35
2022-11-24T09:46:30.533Z,6.10
2022-11-24T09:49:49.863Z,7.13
2022-11-24T09:53:09.222Z,6.80
2022-11-24T09:56:24.088Z,7.13
2022-11-24T09:59:28.552Z,8.77
2022-11-24T10:02:32.191Z,9.93
2022-11-24T10:05:36.343Z,6.43
2022-11-24T10:08:44.615Z,8.02
2022-11-24T10:12:13.831Z,7.95
2022-11-24T10:15:41.551Z,8.77
2022-11-24T10:19:15.218Z,8.77
2022-11-24T10:22:39.718Z,6.73
2022-11-24T10:26:08.420Z,10.45
2022-11-24T10:29:37.250Z,7.28
2022-11-24T10:32:56.340Z,9.10
2022-11-24T10:36:06.664Z,11.00
2022-11-24T10:39:48.041Z,8.10
2022-11-24T10:42:52.238Z,11.00
2022-11-24T10:46:16.792Z,6.90
2022-11-24T10:49:25.878Z,9.25
2022-11-24T10:52:40.426Z,8.77
2022-11-24T10:55:55.138Z,9.53
2022-11-24T10:59:21.129Z,9.52
2022-11-24T11:02:30.963Z,7.63
2022-11-24T11:05:43.058Z,7.80
2022-11-24T11:08:45.971Z,11.70
2022-11-24T11:11:49.415Z,8.70
2022-11-24T11:14:52.050Z,8.45
2022-11-24T11:17:58.870Z,9.93
2022-11-24T11:21:03.285Z,9.07
2022-11-24T11:24:15.471Z,10.20
2022-11-24T11:27:22.475Z,9.97
2022-11-24T11:34:06.300Z,12.27
2022-11-24T11:37:14.603Z,9.25
2022-11-24T11:40:25.130Z,9.33
2022-11-24T11:43:34.218Z,8.73
2022-11-24T11:46:37.190Z,8.82
2022-11-24T11:49:40.890Z,10.70
2022-11-24T11:53:09.546Z,10.98
2022-11-24T11:56:36.409Z,7.83
2022-11-24T12:00:04.404Z,9.97
2022-11-24T12:03:22.404Z,8.02
2022-11-24T12:06:27.798Z,7.90
2022-11-24T12:09:48.678Z,7.50
2022-11-24T12:13:28.335Z,7.20
2022-11-24T12:16:49.607Z,7.90
2022-11-24T12:19:58.153Z,8.38
2022-11-24T12:23:19.203Z,7.80
2022-11-24T12:26:27.525Z,9.02
2022-11-24T12:30:18.358Z,9.70
2022-11-24T12:33:29.664Z,8.63
2022-11-24T12:36:36.673Z,11.40
2022-11-24T12:39:51.284Z,8.30
2022-11-24T12:43:23.123Z,8.00
2022-11-24T12:46:47.340Z,7.30
2022-11-24T12:49:59.376Z,9.33
2022-11-24T12:53:10.596Z,8.45
2022-11-24T12:56:17.493Z,8.38
2022-11-24T12:59:44.436Z,10.98
2022-11-24T13:03:15.564Z,7.17
2022-11-24T13:06:24.569Z,11.30
2022-11-24T13:09:27.178Z,7.97
2022-11-24T13:12:29.977Z,13.55
2022-11-24T13:16:07.041Z,8.80
2022-11-24T13:19:21.094Z,9.37
2022-11-24T13:22:26.331Z,8.23
2022-11-24T13:25:33.925Z,11.40
2022-11-24T13:29:08.839Z,8.15
2022-11-24T13:32:23.718Z,9.07
2022-11-24T13:35:26.693Z,7.67
2022-11-24T13:38:53.099Z,9.10
2022-11-24T13:42:00.811Z,9.23
2022-11-24T13:45:07.113Z,8.70
2022-11-24T13:48:19.758Z,12.60
2022-11-24T13:51:24.696Z,11.30
2022-11-24T13:54:28.897Z,11.57
2022-11-24T13:57:34.876Z,15.57
2022-11-24T14:01:23.647Z,11.88
2022-11-24T14:04:31.017Z,12.85
2022-11-24T14:07:34.976Z,10.93
2022-11-24T14:10:41.576Z,13.90
2022-11-24T14:13:48.261Z,10.70
2022-11-24T14:17:06.953Z,10.55
2022-11-24T14:20:24.988Z,9.68
2022-11-24T14:23:28.154Z,14.87
2022-11-24T14:26:35.599Z,14.43
2022-11-24T14:29:54.941Z,11.48
2022-11-24T14:32:59.753Z,13.68
2022-11-24T14:36:03.019Z,15.07
2022-11-24T14:39:06.150Z,12.80
2022-11-24T14:42:30.228Z,17.97
2022-11-24T14:45:34.963Z,16.20
2022-11-24T14:48:50.043Z,15.60
2022-11-24T14:52:00.739Z,16.58
2022-11-24T14:58:34.609Z,13.63
2022-11-24T15:01:40.010Z,15.18
2022-11-24T15:05:03.215Z,11.75
2022-11-24T15:08:11.084Z,13.10
2022-11-24T15:11:14.850Z,13.07
2022-11-24T15:14:32.112Z,9.20
2022-11-24T15:17:34.917Z,13.63
2022-11-24T15:20:43.093Z,16.75
2022-11-24T15:24:05.998Z,12.90
2022-11-24T15:27:08.965Z,13.40
2022-11-24T15:30:12.755Z,13.13
2022-11-24T15:33:17.855Z,14.35
2022-11-24T15:36:20.930Z,12.75
2022-11-24T15:39:23.820Z,11.02
2022-11-24T15:42:26.518Z,15.37
2022-11-24T15:45:29.250Z,14.60
2022-11-24T15:48:32.576Z,13.45
2022-11-24T15:51:36.141Z,12.52
2022-11-24T15:54:38.944Z,16.35
2022-11-24T15:57:41.760Z,11.17
2022-11-24T16:00:45.602Z,12.93
2022-11-24T16:03:49.227Z,11.40
2022-11-24T16:06:52.099Z,11.82
2022-11-24T16:09:54.913Z,9.77
2022-11-24T16:12:57.570Z,15.37
2022-11-24T16:16:00.358Z,12.97
2022-11-24T16:19:03.185Z,13.27
2022-11-24T16:22:06.573Z,13.77
2022-11-24T16:25:09.892Z,14.32
2022-11-24T16:28:12.558Z,13.07
2022-11-24T16:31:16.498Z,11.77
2022-11-24T16:34:19.678Z,13.05
2022-11-24T16:37:22.799Z,11.88
2022-11-24T16:40:26.001Z,12.18
2022-11-24T16:43:29.804Z,14.50
2022-11-24T16:46:32.912Z,10.50
2022-11-24T16:49:35.746Z,12.60
2022-11-24T16:52:40.336Z,12.55
2022-11-24T16:55:43.552Z,15.60
2022-11-24T16:58:46.460Z,12.57
2022-11-24T17:01:51.157Z,12.00
2022-11-24T17:04:54.423Z,11.05
2022-11-24T17:07:58.647Z,11.35
2022-11-24T17:11:11.552Z,11.07
2022-11-24T17:14:15.459Z,12.93
2022-11-24T17:17:18.780Z,10.83
2022-11-24T17:20:22.752Z,11.35
2022-11-24T17:23:26.302Z,11.60
2022-11-24T17:26:29.258Z,11.38
2022-11-24T17:29:32.302Z,9.43
2022-11-24T17:32:35.328Z,12.43
2022-11-24T17:35:38.563Z,12.75
2022-11-24T17:38:42.620Z,11.45
2022-11-24T17:41:45.964Z,13.95
2022-11-24T17:44:49.626Z,10.73
2022-11-24T17:47:52.902Z,12.50
2022-11-24T17:51:08.678Z,11.98
2022-11-24T17:54:44.908Z,12.50
2022-11-24T17:57:36.280Z,12.57
2022-11-24T18:00:46.384Z,13.40
2022-11-24T18:03:53.398Z,12.17
2022-11-24T18:06:57.257Z,13.25
2022-11-24T18:10:00.553Z,12.38
2022-11-24T18:13:03.683Z,13.93
2022-11-24T18:16:09.446Z,13.27
2022-11-24T18:19:12.642Z,13.53
2022-11-24T18:22:16.755Z,14.98
2022-11-24T18:25:20.166Z,13.27
2022-11-24T18:28:23.369Z,13.65
2022-11-24T18:31:26.846Z,14.00
2022-11-24T18:34:31.138Z,13.17
2022-11-24T18:37:34.724Z,12.77
2022-11-24T18:40:40.147Z,12.80
2022-11-24T18:43:43.570Z,14.15
2022-11-24T18:46:46.844Z,12.37
2022-11-24T18:49:50.080Z,11.20
2022-11-24T18:52:55.663Z,11.70
2022-11-24T18:56:04.092Z,10.68
2022-11-24T18:59:11.109Z,13.48
2022-11-24T19:02:14.861Z,13.27
2022-11-24T19:05:18.717Z,11.87
2022-11-24T19:08:22.115Z,14.57
2022-11-24T19:11:32.443Z,11.32
2022-11-24T19:14:35.967Z,12.40
2022-11-24T19:17:44.259Z,13.23
2022-11-24T19:20:49.768Z,11.17
2022-11-24T19:23:53.338Z,11.82
2022-11-24T19:26:57.354Z,11.98
2022-11-24T19:30:00.598Z,12.38
2022-11-24T19:33:03.997Z,12.97
2022-11-24T19:36:21.989Z,11.77
2022-11-24T19:39:25.481Z,12.02
2022-11-24T19:42:28.888Z,11.98
2022-11-24T19:45:33.229Z,11.32
2022-11-24T19:48:43.826Z,11.80
2022-11-24T19:51:49.504Z,12.40
2022-11-24T19:54:54.057Z,11.35
2022-11-24T19:57:58.011Z,12.10
2022-11-24T20:04:40.145Z,12.27
2022-11-24T20:07:46.048Z,10.23
2022-11-24T20:10:49.314Z,11.45
2022-11-24T20:13:55.082Z,11.70
2022-11-24T20:16:58.289Z,11.68
2022-11-24T20:20:01.476Z,11.27
2022-11-24T20:23:04.828Z,13.00
2022-11-24T20:26:15.601Z,9.90
2022-11-24T20:29:22.146Z,10.63
2022-11-24T20:32:26.220Z,11.73
2022-11-24T20:35:29.752Z,11.47
2022-11-24T20:38:35.003Z,13.17
2022-11-24T20:41:39.725Z,12.32
2022-11-24T20:44:42.889Z,10.60
2022-11-24T20:47:46.261Z,10.88
2022-11-24T20:50:51.462Z,10.80
2022-11-24T20:53:58.068Z,12.23
2022-11-24T20:57:01.577Z,10.60
2022-11-24T21:00:05.637Z,11.07
2022-11-24T21:03:08.649Z,11.07
2022-11-24T21:06:13.611Z,9.50
2022-11-24T21:09:17.072Z,10.87
2022-11-24T21:12:20.158Z,10.80
2022-11-24T21:15:24.273Z,10.27
2022-11-24T21:18:27.525Z,11.10
2022-11-24T21:21:34.649Z,10.60
2022-11-24T21:24:37.697Z,11.53
2022-11-24T21:27:40.640Z,12.45
2022-11-24T21:30:43.706Z,9.73
2022-11-24T21:33:49.234Z,10.25
2022-11-24T21:36:51.907Z,11.03
2022-11-24T21:39:54.603Z,11.43
2022-11-24T21:42:59.583Z,10.57
2022-11-24T21:46:10.755Z,9.73
2022-11-24T21:49:16.500Z,10.32
2022-11-24T21:52:19.262Z,10.27
2022-11-24T21:55:22.535Z,9.57
2022-11-24T21:58:26.644Z,11.15
2022-11-24T22:01:29.758Z,9.98
2022-11-24T22:04:32.774Z,10.90
2022-11-24T22:07:35.799Z,10.10
2022-11-24T22:10:38.497Z,11.13
2022-11-24T22:13:42.171Z,9.18
2022-11-24T22:16:45.007Z,9.68
2022-11-24T22:19:51.247Z,9.35
2022-11-24T22:22:54.493Z,10.10
2022-11-24T22:26:05.998Z,10.20
2022-11-24T22:29:13.669Z,10.48
2022-11-24T22:32:16.633Z,11.25
2022-11-24T22:35:19.533Z,10.10
2022-11-24T22:38:22.378Z,10.60
2022-11-24T22:41:25.620Z,10.73
2022-11-24T22:44:28.788Z,10.13
2022-11-24T22:47:31.566Z,10.52
2022-11-24T22:50:35.019Z,11.60
2022-11-24T22:53:39.471Z,10.17
2022-11-24T22:56:55.078Z,9.93
2022-11-24T23:00:00.573Z,11.68
2022-11-24T23:03:12.743Z,11.70
2022-11-24T23:06:18.528Z,9.88
2022-11-24T23:09:21.288Z,9.70
2022-11-24T23:12:23.989Z,10.53
2022-11-24T23:15:26.842Z,10.52
2022-11-24T23:18:30.156Z,10.18
2022-11-24T23:21:38.632Z,8.90
2022-11-24T23:24:41.408Z,10.70
2022-11-24T23:27:44.015Z,10.70
2022-11-24T23:30:50.280Z,10.35
2022-11-24T23:33:56.983Z,10.02
2022-11-24T23:37:01.118Z,9.73
2022-11-24T23:40:07.081Z,9.77
2022-11-24T23:43:16.420Z,9.87
2022-11-24T23:46:31.923Z,10.18
2022-11-24T23:49:38.175Z,8.98
2022-11-24T23:52:40.877Z,9.20
2022-11-24T23:55:54.901Z,9.80
2022-11-24T23:58:57.700Z,9.43
